sensor_id;sensor_type;location;lat;lon;timestamp;P1;durP1;ratioP1;P2;durP2;ratioP2
25962;SDS011;13760;52.588;13.406;2024-02-14T00:00:45;17.52;;;9.85;;
25962;SDS011;13760;52.588;13.406;2024-02-14T00:03:11;17.33;;;10.23;;
25962;SDS011;13760;52.588;13.406;2024-02-14T00:05:36;17.85;;;9.85;;
25962;SDS011;13760;52.588;13.406;2024-02-14T00:08:02;16.58;;;9.70;;
25962;SDS011;13760;52.588;13.406;2024-02-14T00:10:28;17.15;;;9.98;;
25962;SDS011;13760;52.588;13.406;2024-02-14T00:12:54;15.63;;;9.52;;
25962;SDS011;13760;52.588;13.406;2024-02-14T00:15:19;19.50;;;9.15;;
25962;SDS011;13760;52.588;13.406;2024-02-14T00:17:45;15.55;;;9.77;;
25962;SDS011;13760;52.588;13.406;2024-02-14T00:20:10;14.50;;;9.10;;
25962;SDS011;13760;52.588;13.406;2024-02-14T00:22:39;17.60;;;10.05;;
25962;SDS011;13760;52.588;13.406;2024-02-14T00:25:04;16.27;;;9.93;;
25962;SDS011;13760;52.588;13.406;2024-02-14T00:27:30;14.25;;;9.27;;
25962;SDS011;13760;52.588;13.406;2024-02-14T00:29:56;16.38;;;9.13;;
25962;SDS011;13760;52.588;13.406;2024-02-14T00:32:21;13.20;;;8.63;;
25962;SDS011;13760;52.588;13.406;2024-02-14T00:34:47;18.30;;;9.85;;
25962;SDS011;13760;52.588;13.406;2024-02-14T00:37:14;15.95;;;9.60;;
25962;SDS011;13760;52.588;13.406;2024-02-14T00:39:39;14.25;;;9.32;;
25962;SDS011;13760;52.588;13.406;2024-02-14T00:42:05;14.60;;;9.20;;
25962;SDS011;13760;52.588;13.406;2024-02-14T00:44:31;17.40;;;9.68;;
25962;SDS011;13760;52.588;13.406;2024-02-14T00:46:57;15.95;;;9.10;;
25962;SDS011;13760;52.588;13.406;2024-02-14T00:49:27;15.98;;;10.50;;
25962;SDS011;13760;52.588;13.406;2024-02-14T00:51:52;18.05;;;10.00;;
25962;SDS011;13760;52.588;13.406;2024-02-14T00:54:18;15.52;;;9.00;;
25962;SDS011;13760;52.588;13.406;2024-02-14T00:56:44;19.23;;;10.40;;
25962;SDS011;13760;52.588;13.406;2024-02-14T00:59:10;17.92;;;9.52;;
25962;SDS011;13760;52.588;13.406;2024-02-14T01:01:35;17.40;;;9.80;;
25962;SDS011;13760;52.588;13.406;2024-02-14T01:04:01;16.13;;;9.85;;
25962;SDS011;13760;52.588;13.406;2024-02-14T01:06:27;16.60;;;9.57;;
25962;SDS011;13760;52.588;13.406;2024-02-14T01:08:55;13.93;;;9.60;;
25962;SDS011;13760;52.588;13.406;2024-02-14T01:11:20;17.50;;;10.05;;
25962;SDS011;13760;52.588;13.406;2024-02-14T01:13:46;19.05;;;9.52;;
25962;SDS011;13760;52.588;13.406;2024-02-14T01:16:12;18.50;;;9.85;;
25962;SDS011;13760;52.588;13.406;2024-02-14T01:18:37;17.02;;;9.23;;
25962;SDS011;13760;52.588;13.406;2024-02-14T01:21:03;18.75;;;9.93;;
25962;SDS011;13760;52.588;13.406;2024-02-14T01:23:28;15.95;;;9.55;;
25962;SDS011;13760;52.588;13.406;2024-02-14T01:25:54;19.60;;;9.93;;
25962;SDS011;13760;52.588;13.406;2024-02-14T01:28:20;14.55;;;9.63;;
25962;SDS011;13760;52.588;13.406;2024-02-14T01:30:46;16.05;;;8.95;;
25962;SDS011;13760;52.588;13.406;2024-02-14T01:33:11;19.52;;;9.52;;
25962;SDS011;13760;52.588;13.406;2024-02-14T01:35:37;16.05;;;9.55;;
25962;SDS011;13760;52.588;13.406;2024-02-14T01:38:02;16.02;;;9.48;;
25962;SDS011;13760;52.588;13.406;2024-02-14T01:40:28;15.10;;;9.73;;
25962;SDS011;13760;52.588;13.406;2024-02-14T01:42:54;17.95;;;10.15;;
25962;SDS011;13760;52.588;13.406;2024-02-14T01:45:20;15.98;;;10.40;;
25962;SDS011;13760;52.588;13.406;2024-02-14T01:47:46;14.00;;;9.02;;
25962;SDS011;13760;52.588;13.406;2024-02-14T01:50:13;18.42;;;9.82;;
25962;SDS011;13760;52.588;13.406;2024-02-14T01:52:39;15.98;;;9.30;;
25962;SDS011;13760;52.588;13.406;2024-02-14T01:55:05;14.60;;;9.25;;
25962;SDS011;13760;52.588;13.406;2024-02-14T01:57:33;17.73;;;9.35;;
25962;SDS011;13760;52.588;13.406;2024-02-14T02:00:00;15.98;;;9.38;;
25962;SDS011;13760;52.588;13.406;2024-02-14T02:02:34;16.77;;;9.35;;
25962;SDS011;13760;52.588;13.406;2024-02-14T02:05:04;17.75;;;10.00;;
25962;SDS011;13760;52.588;13.406;2024-02-14T02:07:31;18.73;;;9.82;;
25962;SDS011;13760;52.588;13.406;2024-02-14T02:09:57;14.40;;;9.23;;
25962;SDS011;13760;52.588;13.406;2024-02-14T02:12:23;15.30;;;9.10;;
25962;SDS011;13760;52.588;13.406;2024-02-14T02:14:50;16.08;;;9.52;;
25962;SDS011;13760;52.588;13.406;2024-02-14T02:17:15;16.48;;;9.95;;
25962;SDS011;13760;52.588;13.406;2024-02-14T02:19:42;16.63;;;9.70;;
25962;SDS011;13760;52.588;13.406;2024-02-14T02:22:08;14.95;;;9.63;;
25962;SDS011;13760;52.588;13.406;2024-02-14T02:24:34;14.13;;;9.55;;
25962;SDS011;13760;52.588;13.406;2024-02-14T02:27:00;13.27;;;9.50;;
25962;SDS011;13760;52.588;13.406;2024-02-14T02:29:27;14.57;;;9.63;;
25962;SDS011;13760;52.588;13.406;2024-02-14T02:31:52;15.10;;;8.80;;
25962;SDS011;13760;52.588;13.406;2024-02-14T02:34:18;12.55;;;9.05;;
25962;SDS011;13760;52.588;13.406;2024-02-14T02:36:44;14.38;;;8.73;;
25962;SDS011;13760;52.588;13.406;2024-02-14T02:39:11;21.92;;;9.88;;
25962;SDS011;13760;52.588;13.406;2024-02-14T02:41:38;17.30;;;9.60;;
25962;SDS011;13760;52.588;13.406;2024-02-14T02:44:04;14.10;;;8.82;;
25962;SDS011;13760;52.588;13.406;2024-02-14T02:46:31;13.25;;;8.75;;
25962;SDS011;13760;52.588;13.406;2024-02-14T02:48:57;16.98;;;9.65;;
25962;SDS011;13760;52.588;13.406;2024-02-14T02:51:23;14.70;;;8.68;;
25962;SDS011;13760;52.588;13.406;2024-02-14T02:53:49;14.77;;;8.90;;
25962;SDS011;13760;52.588;13.406;2024-02-14T02:56:16;15.35;;;9.07;;
25962;SDS011;13760;52.588;13.406;2024-02-14T02:58:43;19.95;;;9.93;;
25962;SDS011;13760;52.588;13.406;2024-02-14T03:01:09;14.10;;;9.30;;
25962;SDS011;13760;52.588;13.406;2024-02-14T03:03:36;13.30;;;9.50;;
25962;SDS011;13760;52.588;13.406;2024-02-14T03:06:03;20.35;;;10.30;;
25962;SDS011;13760;52.588;13.406;2024-02-14T03:08:29;14.02;;;10.30;;
25962;SDS011;13760;52.588;13.406;2024-02-14T03:10:55;15.73;;;10.45;;
25962;SDS011;13760;52.588;13.406;2024-02-14T03:13:24;15.90;;;10.43;;
25962;SDS011;13760;52.588;13.406;2024-02-14T03:15:51;16.00;;;9.93;;
25962;SDS011;13760;52.588;13.406;2024-02-14T03:18:17;14.10;;;9.38;;
25962;SDS011;13760;52.588;13.406;2024-02-14T03:20:42;17.05;;;10.50;;
25962;SDS011;13760;52.588;13.406;2024-02-14T03:23:08;15.98;;;10.40;;
25962;SDS011;13760;52.588;13.406;2024-02-14T03:25:33;17.05;;;10.45;;
25962;SDS011;13760;52.588;13.406;2024-02-14T03:28:01;15.25;;;9.77;;
25962;SDS011;13760;52.588;13.406;2024-02-14T03:30:32;18.40;;;10.15;;
25962;SDS011;13760;52.588;13.406;2024-02-14T03:32:58;17.08;;;10.55;;
25962;SDS011;13760;52.588;13.406;2024-02-14T03:35:24;19.50;;;10.63;;
25962;SDS011;13760;52.588;13.406;2024-02-14T03:37:51;17.90;;;10.90;;
25962;SDS011;13760;52.588;13.406;2024-02-14T03:40:18;17.33;;;10.32;;
25962;SDS011;13760;52.588;13.406;2024-02-14T03:42:47;17.13;;;10.63;;
25962;SDS011;13760;52.588;13.406;2024-02-14T03:45:13;16.35;;;10.20;;
25962;SDS011;13760;52.588;13.406;2024-02-14T03:47:39;14.23;;;9.18;;
25962;SDS011;13760;52.588;13.406;2024-02-14T03:50:05;15.68;;;9.45;;
25962;SDS011;13760;52.588;13.406;2024-02-14T03:52:32;17.20;;;9.65;;
25962;SDS011;13760;52.588;13.406;2024-02-14T03:54:58;16.00;;;9.88;;
25962;SDS011;13760;52.588;13.406;2024-02-14T03:57:24;20.08;;;9.73;;
25962;SDS011;13760;52.588;13.406;2024-02-14T03:59:53;15.68;;;9.90;;
25962;SDS011;13760;52.588;13.406;2024-02-14T04:02:19;13.35;;;9.25;;
25962;SDS011;13760;52.588;13.406;2024-02-14T04:04:53;17.13;;;9.70;;
25962;SDS011;13760;52.588;13.406;2024-02-14T04:07:18;14.75;;;9.48;;
25962;SDS011;13760;52.588;13.406;2024-02-14T04:09:44;15.30;;;9.43;;
25962;SDS011;13760;52.588;13.406;2024-02-14T04:12:10;14.73;;;9.75;;
25962;SDS011;13760;52.588;13.406;2024-02-14T04:14:35;14.85;;;9.27;;
25962;SDS011;13760;52.588;13.406;2024-02-14T04:17:02;16.65;;;9.13;;
25962;SDS011;13760;52.588;13.406;2024-02-14T04:19:29;16.02;;;9.05;;
25962;SDS011;13760;52.588;13.406;2024-02-14T04:21:54;12.57;;;8.57;;
25962;SDS011;13760;52.588;13.406;2024-02-14T04:24:20;12.00;;;8.68;;
25962;SDS011;13760;52.588;13.406;2024-02-14T04:26:45;18.45;;;9.43;;
25962;SDS011;13760;52.588;13.406;2024-02-14T04:29:13;19.45;;;9.50;;
25962;SDS011;13760;52.588;13.406;2024-02-14T04:31:38;13.73;;;9.00;;
25962;SDS011;13760;52.588;13.406;2024-02-14T04:34:04;18.25;;;9.18;;
25962;SDS011;13760;52.588;13.406;2024-02-14T04:36:32;12.73;;;9.10;;
25962;SDS011;13760;52.588;13.406;2024-02-14T04:39:01;16.05;;;9.35;;
25962;SDS011;13760;52.588;13.406;2024-02-14T04:41:26;14.75;;;9.43;;
25962;SDS011;13760;52.588;13.406;2024-02-14T04:43:52;16.73;;;9.60;;
25962;SDS011;13760;52.588;13.406;2024-02-14T04:46:17;15.93;;;9.48;;
25962;SDS011;13760;52.588;13.406;2024-02-14T04:48:43;14.55;;;9.88;;
25962;SDS011;13760;52.588;13.406;2024-02-14T04:51:09;16.52;;;9.05;;
25962;SDS011;13760;52.588;13.406;2024-02-14T04:53:34;12.15;;;9.00;;
25962;SDS011;13760;52.588;13.406;2024-02-14T04:56:00;14.40;;;9.25;;
25962;SDS011;13760;52.588;13.406;2024-02-14T04:58:26;18.40;;;9.85;;
25962;SDS011;13760;52.588;13.406;2024-02-14T05:00:52;16.63;;;9.60;;
25962;SDS011;13760;52.588;13.406;2024-02-14T05:03:18;13.30;;;9.30;;
25962;SDS011;13760;52.588;13.406;2024-02-14T05:05:44;17.20;;;9.55;;
25962;SDS011;13760;52.588;13.406;2024-02-14T05:08:09;15.68;;;9.93;;
25962;SDS011;13760;52.588;13.406;2024-02-14T05:10:35;12.75;;;9.13;;
25962;SDS011;13760;52.588;13.406;2024-02-14T05:13:00;18.45;;;9.90;;
25962;SDS011;13760;52.588;13.406;2024-02-14T05:15:26;15.88;;;9.63;;
25962;SDS011;13760;52.588;13.406;2024-02-14T05:17:52;18.92;;;9.90;;
25962;SDS011;13760;52.588;13.406;2024-02-14T05:20:17;14.85;;;9.23;;
25962;SDS011;13760;52.588;13.406;2024-02-14T05:22:43;14.63;;;8.82;;
25962;SDS011;13760;52.588;13.406;2024-02-14T05:25:09;15.63;;;9.55;;
25962;SDS011;13760;52.588;13.406;2024-02-14T05:27:35;15.95;;;9.90;;
25962;SDS011;13760;52.588;13.406;2024-02-14T05:30:02;19.33;;;9.93;;
25962;SDS011;13760;52.588;13.406;2024-02-14T05:32:30;19.17;;;9.85;;
25962;SDS011;13760;52.588;13.406;2024-02-14T05:34:58;17.13;;;9.70;;
25962;SDS011;13760;52.588;13.406;2024-02-14T05:37:30;19.15;;;10.45;;
25962;SDS011;13760;52.588;13.406;2024-02-14T05:39:56;14.52;;;9.52;;
25962;SDS011;13760;52.588;13.406;2024-02-14T05:42:22;14.60;;;9.75;;
25962;SDS011;13760;52.588;13.406;2024-02-14T05:44:47;14.65;;;9.85;;
25962;SDS011;13760;52.588;13.406;2024-02-14T05:47:13;19.73;;;10.25;;
25962;SDS011;13760;52.588;13.406;2024-02-14T05:49:39;18.27;;;9.55;;
25962;SDS011;13760;52.588;13.406;2024-02-14T05:52:06;15.68;;;9.95;;
25962;SDS011;13760;52.588;13.406;2024-02-14T05:54:32;16.13;;;10.10;;
25962;SDS011;13760;52.588;13.406;2024-02-14T05:56:58;16.38;;;10.57;;
25962;SDS011;13760;52.588;13.406;2024-02-14T05:59:23;17.60;;;9.68;;
25962;SDS011;13760;52.588;13.406;2024-02-14T06:01:49;17.02;;;9.88;;
25962;SDS011;13760;52.588;13.406;2024-02-14T06:04:14;16.38;;;9.88;;
25962;SDS011;13760;52.588;13.406;2024-02-14T06:06:40;13.75;;;9.65;;
25962;SDS011;13760;52.588;13.406;2024-02-14T06:09:06;18.05;;;9.50;;
25962;SDS011;13760;52.588;13.406;2024-02-14T06:11:35;16.17;;;9.73;;
25962;SDS011;13760;52.588;13.406;2024-02-14T06:14:03;16.35;;;9.90;;
25962;SDS011;13760;52.588;13.406;2024-02-14T06:16:32;17.30;;;9.52;;
25962;SDS011;13760;52.588;13.406;2024-02-14T06:18:58;17.75;;;10.30;;
25962;SDS011;13760;52.588;13.406;2024-02-14T06:21:24;16.75;;;9.85;;
25962;SDS011;13760;52.588;13.406;2024-02-14T06:23:50;18.52;;;10.27;;
25962;SDS011;13760;52.588;13.406;2024-02-14T06:26:16;14.77;;;9.57;;
25962;SDS011;13760;52.588;13.406;2024-02-14T06:28:42;17.30;;;9.27;;
25962;SDS011;13760;52.588;13.406;2024-02-14T06:31:09;14.88;;;10.13;;
25962;SDS011;13760;52.588;13.406;2024-02-14T06:33:34;14.63;;;8.93;;
25962;SDS011;13760;52.588;13.406;2024-02-14T06:36:00;14.32;;;9.57;;
25962;SDS011;13760;52.588;13.406;2024-02-14T06:38:26;14.93;;;9.27;;
25962;SDS011;13760;52.588;13.406;2024-02-14T06:40:52;15.75;;;9.20;;
25962;SDS011;13760;52.588;13.406;2024-02-14T06:43:17;15.52;;;8.98;;
25962;SDS011;13760;52.588;13.406;2024-02-14T06:45:43;13.65;;;8.73;;
25962;SDS011;13760;52.588;13.406;2024-02-14T06:48:08;17.02;;;9.00;;
25962;SDS011;13760;52.588;13.406;2024-02-14T06:50:34;11.45;;;8.13;;
25962;SDS011;13760;52.588;13.406;2024-02-14T06:52:59;13.32;;;8.68;;
25962;SDS011;13760;52.588;13.406;2024-02-14T06:55:28;12.70;;;8.45;;
25962;SDS011;13760;52.588;13.406;2024-02-14T06:57:56;13.60;;;8.45;;
25962;SDS011;13760;52.588;13.406;2024-02-14T07:00:22;18.45;;;9.23;;
25962;SDS011;13760;52.588;13.406;2024-02-14T07:02:48;16.98;;;9.00;;
25962;SDS011;13760;52.588;13.406;2024-02-14T07:05:14;15.60;;;9.50;;
25962;SDS011;13760;52.588;13.406;2024-02-14T07:07:40;11.02;;;8.07;;
25962;SDS011;13760;52.588;13.406;2024-02-14T07:10:06;14.65;;;8.45;;
25962;SDS011;13760;52.588;13.406;2024-02-14T07:12:32;16.23;;;8.05;;
25962;SDS011;13760;52.588;13.406;2024-02-14T07:14:58;13.18;;;8.30;;
25962;SDS011;13760;52.588;13.406;2024-02-14T07:17:23;13.48;;;7.65;;
25962;SDS011;13760;52.588;13.406;2024-02-14T07:19:49;15.05;;;7.60;;
25962;SDS011;13760;52.588;13.406;2024-02-14T07:22:15;12.85;;;7.38;;
25962;SDS011;13760;52.588;13.406;2024-02-14T07:24:42;14.05;;;7.47;;
25962;SDS011;13760;52.588;13.406;2024-02-14T07:27:08;13.50;;;6.90;;
25962;SDS011;13760;52.588;13.406;2024-02-14T07:29:33;16.33;;;7.22;;
25962;SDS011;13760;52.588;13.406;2024-02-14T07:32:01;14.93;;;7.32;;
25962;SDS011;13760;52.588;13.406;2024-02-14T07:34:27;9.88;;;6.60;;
25962;SDS011;13760;52.588;13.406;2024-02-14T07:36:52;12.07;;;7.55;;
25962;SDS011;13760;52.588;13.406;2024-02-14T07:39:18;10.45;;;6.78;;
25962;SDS011;13760;52.588;13.406;2024-02-14T07:41:43;15.75;;;7.05;;
25962;SDS011;13760;52.588;13.406;2024-02-14T07:44:09;11.88;;;6.45;;
25962;SDS011;13760;52.588;13.406;2024-02-14T07:46:35;12.18;;;6.80;;
25962;SDS011;13760;52.588;13.406;2024-02-14T07:49:00;12.32;;;6.13;;
25962;SDS011;13760;52.588;13.406;2024-02-14T07:51:26;11.75;;;6.53;;
25962;SDS011;13760;52.588;13.406;2024-02-14T07:53:53;15.10;;;6.90;;
25962;SDS011;13760;52.588;13.406;2024-02-14T07:56:19;11.30;;;6.90;;
25962;SDS011;13760;52.588;13.406;2024-02-14T07:58:45;14.05;;;6.05;;
25962;SDS011;13760;52.588;13.406;2024-02-14T08:01:10;11.50;;;6.50;;
25962;SDS011;13760;52.588;13.406;2024-02-14T08:03:36;14.63;;;6.50;;
25962;SDS011;13760;52.588;13.406;2024-02-14T08:06:01;13.85;;;7.00;;
25962;SDS011;13760;52.588;13.406;2024-02-14T08:08:27;11.05;;;6.55;;
25962;SDS011;13760;52.588;13.406;2024-02-14T08:10:53;12.63;;;6.85;;
25962;SDS011;13760;52.588;13.406;2024-02-14T08:13:19;12.68;;;6.82;;
25962;SDS011;13760;52.588;13.406;2024-02-14T08:15:45;12.55;;;6.78;;
25962;SDS011;13760;52.588;13.406;2024-02-14T08:18:11;11.85;;;6.32;;
25962;SDS011;13760;52.588;13.406;2024-02-14T08:20:37;11.45;;;6.55;;
25962;SDS011;13760;52.588;13.406;2024-02-14T08:23:03;14.57;;;6.68;;
25962;SDS011;13760;52.588;13.406;2024-02-14T08:25:29;14.02;;;7.22;;
25962;SDS011;13760;52.588;13.406;2024-02-14T08:27:54;13.63;;;7.50;;
25962;SDS011;13760;52.588;13.406;2024-02-14T08:30:21;15.80;;;7.85;;
25962;SDS011;13760;52.588;13.406;2024-02-14T08:32:46;12.35;;;7.65;;
25962;SDS011;13760;52.588;13.406;2024-02-14T08:35:12;13.40;;;7.70;;
25962;SDS011;13760;52.588;13.406;2024-02-14T08:37:38;10.65;;;6.93;;
25962;SDS011;13760;52.588;13.406;2024-02-14T08:40:05;13.73;;;7.10;;
25962;SDS011;13760;52.588;13.406;2024-02-14T08:42:32;12.60;;;7.03;;
25962;SDS011;13760;52.588;13.406;2024-02-14T08:45:14;16.05;;;6.93;;
25962;SDS011;13760;52.588;13.406;2024-02-14T08:47:43;11.43;;;6.75;;
25962;SDS011;13760;52.588;13.406;2024-02-14T08:50:09;11.98;;;6.68;;
25962;SDS011;13760;52.588;13.406;2024-02-14T08:52:42;9.90;;;5.85;;
25962;SDS011;13760;52.588;13.406;2024-02-14T08:55:23;9.15;;;5.90;;
25962;SDS011;13760;52.588;13.406;2024-02-14T08:57:48;11.77;;;5.85;;
25962;SDS011;13760;52.588;13.406;2024-02-14T09:00:14;13.50;;;6.07;;
25962;SDS011;13760;52.588;13.406;2024-02-14T09:02:44;11.02;;;6.38;;
25962;SDS011;13760;52.588;13.406;2024-02-14T09:05:10;10.00;;;6.40;;
25962;SDS011;13760;52.588;13.406;2024-02-14T09:07:36;11.48;;;5.82;;
25962;SDS011;13760;52.588;13.406;2024-02-14T09:10:02;9.98;;;6.10;;
25962;SDS011;13760;52.588;13.406;2024-02-14T09:12:28;10.63;;;5.65;;
25962;SDS011;13760;52.588;13.406;2024-02-14T09:14:53;11.77;;;6.03;;
25962;SDS011;13760;52.588;13.406;2024-02-14T09:17:19;9.32;;;5.90;;
25962;SDS011;13760;52.588;13.406;2024-02-14T09:19:44;11.63;;;5.72;;
25962;SDS011;13760;52.588;13.406;2024-02-14T09:22:10;13.25;;;6.30;;
25962;SDS011;13760;52.588;13.406;2024-02-14T09:24:36;9.20;;;5.82;;
25962;SDS011;13760;52.588;13.406;2024-02-14T09:27:01;9.80;;;5.30;;
25962;SDS011;13760;52.588;13.406;2024-02-14T09:29:27;11.73;;;5.18;;
25962;SDS011;13760;52.588;13.406;2024-02-14T09:31:54;9.05;;;5.05;;
25962;SDS011;13760;52.588;13.406;2024-02-14T09:34:19;8.48;;;5.05;;
25962;SDS011;13760;52.588;13.406;2024-02-14T09:36:47;9.82;;;5.20;;
25962;SDS011;13760;52.588;13.406;2024-02-14T09:39:14;11.27;;;4.90;;
25962;SDS011;13760;52.588;13.406;2024-02-14T09:41:42;10.07;;;5.00;;
25962;SDS011;13760;52.588;13.406;2024-02-14T09:44:12;8.93;;;5.50;;
25962;SDS011;13760;52.588;13.406;2024-02-14T09:46:38;9.23;;;5.00;;
25962;SDS011;13760;52.588;13.406;2024-02-14T09:49:03;7.10;;;4.60;;
25962;SDS011;13760;52.588;13.406;2024-02-14T09:51:30;11.07;;;6.05;;
25962;SDS011;13760;52.588;13.406;2024-02-14T09:53:56;11.55;;;5.90;;
25962;SDS011;13760;52.588;13.406;2024-02-14T09:56:25;10.02;;;5.70;;
25962;SDS011;13760;52.588;13.406;2024-02-14T09:58:52;13.68;;;5.40;;
25962;SDS011;13760;52.588;13.406;2024-02-14T10:01:22;11.57;;;5.88;;
25962;SDS011;13760;52.588;13.406;2024-02-14T10:03:50;12.40;;;6.78;;
25962;SDS011;13760;52.588;13.406;2024-02-14T10:06:17;10.30;;;5.60;;
25962;SDS011;13760;52.588;13.406;2024-02-14T10:08:45;10.40;;;5.40;;
25962;SDS011;13760;52.588;13.406;2024-02-14T10:13:44;8.30;;;5.10;;
25962;SDS011;13760;52.588;13.406;2024-02-14T10:16:11;10.05;;;5.13;;
25962;SDS011;13760;52.588;13.406;2024-02-14T10:18:37;8.68;;;5.10;;
25962;SDS011;13760;52.588;13.406;2024-02-14T10:21:04;11.75;;;5.68;;
25962;SDS011;13760;52.588;13.406;2024-02-14T10:23:29;13.18;;;5.88;;
25962;SDS011;13760;52.588;13.406;2024-02-14T10:25:55;7.43;;;4.93;;
25962;SDS011;13760;52.588;13.406;2024-02-14T10:28:22;10.93;;;4.53;;
25962;SDS011;13760;52.588;13.406;2024-02-14T10:30:48;8.30;;;5.30;;
25962;SDS011;13760;52.588;13.406;2024-02-14T10:33:17;7.35;;;4.53;;
25962;SDS011;13760;52.588;13.406;2024-02-14T10:35:44;8.93;;;5.00;;
25962;SDS011;13760;52.588;13.406;2024-02-14T10:38:10;9.23;;;5.20;;
25962;SDS011;13760;52.588;13.406;2024-02-14T10:40:36;8.88;;;5.35;;
25962;SDS011;13760;52.588;13.406;2024-02-14T10:43:07;8.23;;;5.28;;
25962;SDS011;13760;52.588;13.406;2024-02-14T10:45:36;11.05;;;5.97;;
25962;SDS011;13760;52.588;13.406;2024-02-14T10:48:03;11.15;;;5.30;;
25962;SDS011;13760;52.588;13.406;2024-02-14T10:50:31;9.75;;;4.95;;
25962;SDS011;13760;52.588;13.406;2024-02-14T10:52:59;14.68;;;5.18;;
25962;SDS011;13760;52.588;13.406;2024-02-14T10:55:29;9.88;;;5.15;;
25962;SDS011;13760;52.588;13.406;2024-02-14T10:57:56;10.70;;;5.00;;
25962;SDS011;13760;52.588;13.406;2024-02-14T11:00:22;10.55;;;4.55;;
25962;SDS011;13760;52.588;13.406;2024-02-14T11:02:49;11.23;;;4.38;;
25962;SDS011;13760;52.588;13.406;2024-02-14T11:05:16;11.52;;;4.78;;
25962;SDS011;13760;52.588;13.406;2024-02-14T11:07:44;7.50;;;4.97;;
25962;SDS011;13760;52.588;13.406;2024-02-14T11:10:17;10.80;;;5.25;;
25962;SDS011;13760;52.588;13.406;2024-02-14T11:12:46;8.75;;;4.80;;
25962;SDS011;13760;52.588;13.406;2024-02-14T11:15:17;8.18;;;5.03;;
25962;SDS011;13760;52.588;13.406;2024-02-14T11:17:47;6.88;;;5.07;;
25962;SDS011;13760;52.588;13.406;2024-02-14T11:20:15;12.90;;;5.95;;
25962;SDS011;13760;52.588;13.406;2024-02-14T11:22:49;13.48;;;4.97;;
25962;SDS011;13760;52.588;13.406;2024-02-14T11:25:36;11.85;;;5.32;;
25962;SDS011;13760;52.588;13.406;2024-02-14T11:30:52;13.02;;;4.68;;
25962;SDS011;13760;52.588;13.406;2024-02-14T11:33:24;10.65;;;5.07;;
25962;SDS011;13760;52.588;13.406;2024-02-14T11:35:50;11.98;;;5.47;;
25962;SDS011;13760;52.588;13.406;2024-02-14T11:38:18;8.50;;;5.38;;
25962;SDS011;13760;52.588;13.406;2024-02-14T11:40:44;14.18;;;6.30;;
25962;SDS011;13760;52.588;13.406;2024-02-14T11:43:11;10.18;;;5.68;;
25962;SDS011;13760;52.588;13.406;2024-02-14T11:45:38;13.25;;;5.70;;
25962;SDS011;13760;52.588;13.406;2024-02-14T11:48:06;12.85;;;5.90;;
25962;SDS011;13760;52.588;13.406;2024-02-14T11:50:39;9.45;;;5.70;;
25962;SDS011;13760;52.588;13.406;2024-02-14T11:53:06;9.35;;;5.65;;
25962;SDS011;13760;52.588;13.406;2024-02-14T11:55:36;10.20;;;5.63;;
25962;SDS011;13760;52.588;13.406;2024-02-14T11:58:06;10.15;;;5.70;;
25962;SDS011;13760;52.588;13.406;2024-02-14T12:00:42;11.73;;;5.80;;
25962;SDS011;13760;52.588;13.406;2024-02-14T12:03:13;9.27;;;5.13;;
25962;SDS011;13760;52.588;13.406;2024-02-14T12:05:42;9.10;;;5.45;;
25962;SDS011;13760;52.588;13.406;2024-02-14T12:08:09;13.70;;;5.60;;
25962;SDS011;13760;52.588;13.406;2024-02-14T12:10:35;10.63;;;5.63;;
25962;SDS011;13760;52.588;13.406;2024-02-14T12:13:06;12.45;;;5.43;;
25962;SDS011;13760;52.588;13.406;2024-02-14T12:15:37;10.20;;;5.78;;
25962;SDS011;13760;52.588;13.406;2024-02-14T12:18:06;10.90;;;5.72;;
25962;SDS011;13760;52.588;13.406;2024-02-14T12:20:38;9.82;;;6.25;;
25962;SDS011;13760;52.588;13.406;2024-02-14T12:23:05;9.10;;;5.88;;
25962;SDS011;13760;52.588;13.406;2024-02-14T12:25:31;14.27;;;6.80;;
25962;SDS011;13760;52.588;13.406;2024-02-14T12:27:57;10.65;;;6.00;;
25962;SDS011;13760;52.588;13.406;2024-02-14T12:30:23;9.65;;;5.97;;
25962;SDS011;13760;52.588;13.406;2024-02-14T12:33:17;10.02;;;6.35;;
25962;SDS011;13760;52.588;13.406;2024-02-14T12:35:46;9.80;;;5.97;;
25962;SDS011;13760;52.588;13.406;2024-02-14T12:38:13;15.10;;;6.20;;
25962;SDS011;13760;52.588;13.406;2024-02-14T12:40:39;10.60;;;5.97;;
25962;SDS011;13760;52.588;13.406;2024-02-14T12:43:12;9.57;;;6.15;;
25962;SDS011;13760;52.588;13.406;2024-02-14T12:45:39;11.00;;;5.72;;
25962;SDS011;13760;52.588;13.406;2024-02-14T12:48:09;10.18;;;5.97;;
25962;SDS011;13760;52.588;13.406;2024-02-14T12:50:37;12.93;;;5.95;;
25962;SDS011;13760;52.588;13.406;2024-02-14T12:53:03;12.93;;;6.07;;
25962;SDS011;13760;52.588;13.406;2024-02-14T12:55:29;13.13;;;6.18;;
25962;SDS011;13760;52.588;13.406;2024-02-14T12:57:55;8.90;;;5.55;;
25962;SDS011;13760;52.588;13.406;2024-02-14T13:00:21;11.10;;;5.63;;
25962;SDS011;13760;52.588;13.406;2024-02-14T13:02:47;7.57;;;5.55;;
25962;SDS011;13760;52.588;13.406;2024-02-14T13:05:14;11.23;;;6.32;;
25962;SDS011;13760;52.588;13.406;2024-02-14T13:07:40;12.48;;;6.03;;
25962;SDS011;13760;52.588;13.406;2024-02-14T13:10:06;10.32;;;5.82;;
25962;SDS011;13760;52.588;13.406;2024-02-14T13:12:34;11.82;;;5.88;;
25962;SDS011;13760;52.588;13.406;2024-02-14T13:15:00;10.63;;;5.70;;
25962;SDS011;13760;52.588;13.406;2024-02-14T13:17:26;10.57;;;5.95;;
25962;SDS011;13760;52.588;13.406;2024-02-14T13:19:52;11.00;;;6.60;;
25962;SDS011;13760;52.588;13.406;2024-02-14T13:22:18;8.85;;;5.47;;
25962;SDS011;13760;52.588;13.406;2024-02-14T13:24:44;13.90;;;6.30;;
25962;SDS011;13760;52.588;13.406;2024-02-14T13:27:09;12.98;;;6.10;;
25962;SDS011;13760;52.588;13.406;2024-02-14T13:29:35;11.77;;;6.35;;
25962;SDS011;13760;52.588;13.406;2024-02-14T13:32:00;13.80;;;6.38;;
25962;SDS011;13760;52.588;13.406;2024-02-14T13:34:27;9.55;;;6.32;;
25962;SDS011;13760;52.588;13.406;2024-02-14T13:36:53;12.85;;;6.55;;
25962;SDS011;13760;52.588;13.406;2024-02-14T13:39:19;12.07;;;6.57;;
25962;SDS011;13760;52.588;13.406;2024-02-14T13:41:44;10.82;;;7.25;;
25962;SDS011;13760;52.588;13.406;2024-02-14T13:44:10;13.05;;;7.57;;
25962;SDS011;13760;52.588;13.406;2024-02-14T13:46:36;13.18;;;7.28;;
25962;SDS011;13760;52.588;13.406;2024-02-14T13:49:02;13.73;;;7.60;;
25962;SDS011;13760;52.588;13.406;2024-02-14T13:51:28;13.20;;;7.20;;
25962;SDS011;13760;52.588;13.406;2024-02-14T13:53:54;13.68;;;7.80;;
25962;SDS011;13760;52.588;13.406;2024-02-14T13:56:20;12.70;;;7.70;;
25962;SDS011;13760;52.588;13.406;2024-02-14T13:58:47;14.68;;;7.70;;
25962;SDS011;13760;52.588;13.406;2024-02-14T14:01:16;10.15;;;7.35;;
25962;SDS011;13760;52.588;13.406;2024-02-14T14:03:42;14.73;;;8.07;;
25962;SDS011;13760;52.588;13.406;2024-02-14T14:06:08;12.13;;;8.38;;
25962;SDS011;13760;52.588;13.406;2024-02-14T14:08:34;15.75;;;8.18;;
25962;SDS011;13760;52.588;13.406;2024-02-14T14:11:01;12.98;;;7.57;;
25962;SDS011;13760;52.588;13.406;2024-02-14T14:13:28;10.57;;;7.28;;
25962;SDS011;13760;52.588;13.406;2024-02-14T14:15:56;11.35;;;7.15;;
25962;SDS011;13760;52.588;13.406;2024-02-14T14:18:22;12.55;;;7.35;;
25962;SDS011;13760;52.588;13.406;2024-02-14T14:20:48;10.63;;;7.47;;
25962;SDS011;13760;52.588;13.406;2024-02-14T14:23:14;13.45;;;8.10;;